createdAt,value
2018-03-28T00:00:00.120Z,9.37
2018-03-28T00:02:27.625Z,9.38
2018-03-28T00:04:55.111Z,9.42
2018-03-28T00:07:22.611Z,9.40
2018-03-28T00:09:50.099Z,9.40
2018-03-28T00:12:17.608Z,9.43
2018-03-28T00:14:45.094Z,9.44
2018-03-28T00:17:12.603Z,9.45
2018-03-28T00:19:40.088Z,9.43
2018-03-28T00:22:07.599Z,9.45
2018-03-28T00:24:35.108Z,9.56
2018-03-28T00:27:02.615Z,9.63
2018-03-28T00:29:30.124Z,9.70
2018-03-28T00:31:57.635Z,9.72
2018-03-28T00:34:25.130Z,9.69
2018-03-28T00:36:52.631Z,9.84
2018-03-28T00:39:20.144Z,9.87
2018-03-28T00:41:47.620Z,9.86
2018-03-28T00:44:15.131Z,9.89
2018-03-28T00:46:42.622Z,9.88
2018-03-28T00:49:10.132Z,9.89
2018-03-28T00:51:37.614Z,9.98
2018-03-28T00:54:05.119Z,10.12
2018-03-28T00:56:32.606Z,10.14
2018-03-28T00:59:00.111Z,10.15
2018-03-28T01:01:27.596Z,10.17
2018-03-28T01:03:55.108Z,10.17
2018-03-28T01:06:22.595Z,10.23
2018-03-28T01:08:50.112Z,10.22
2018-03-28T01:11:17.604Z,10.18
2018-03-28T01:13:45.128Z,10.22
2018-03-28T01:16:12.643Z,10.23
2018-03-28T01:18:40.320Z,10.23
2018-03-28T01:21:07.815Z,10.11
2018-03-28T01:23:35.336Z,9.95
2018-03-28T01:26:02.824Z,9.93
2018-03-28T01:28:30.338Z,9.81
2018-03-28T01:30:57.853Z,9.70
2018-03-28T01:33:25.376Z,9.66
2018-03-28T01:35:52.935Z,9.65
2018-03-28T01:38:20.448Z,9.72
2018-03-28T01:40:47.931Z,9.69
2018-03-28T01:43:15.436Z,9.73
2018-03-28T01:45:42.936Z,9.72
2018-03-28T01:48:10.446Z,9.85
2018-03-28T01:50:37.946Z,9.97
2018-03-28T01:53:05.431Z,10.06
2018-03-28T01:55:32.949Z,10.10
2018-03-28T01:58:00.488Z,10.06
2018-03-28T02:00:28.007Z,10.00
2018-03-28T02:02:55.491Z,9.99
2018-03-28T02:05:22.998Z,10.10
2018-03-28T02:07:50.487Z,10.04
2018-03-28T02:10:18.007Z,10.01
2018-03-28T02:12:45.496Z,10.04
2018-03-28T02:15:13.097Z,10.04
2018-03-28T02:17:40.621Z,10.04
2018-03-28T02:20:08.134Z,10.05
2018-03-28T02:22:35.620Z,10.06
2018-03-28T02:25:03.131Z,10.10
2018-03-28T02:27:30.643Z,10.10
2018-03-28T02:29:58.159Z,10.13
2018-03-28T02:32:25.683Z,10.20
2018-03-28T02:34:53.412Z,10.25
2018-03-28T02:37:20.905Z,10.24
2018-03-28T02:39:48.424Z,10.30
2018-03-28T02:42:15.910Z,10.28
2018-03-28T02:44:43.428Z,10.31
2018-03-28T02:47:10.916Z,10.24
2018-03-28T02:49:38.435Z,10.23
2018-03-28T02:52:05.921Z,10.36
2018-03-28T02:54:33.436Z,10.38
2018-03-28T02:57:01.069Z,10.32
2018-03-28T02:59:28.572Z,10.33
2018-03-28T03:01:56.075Z,10.37
2018-03-28T03:04:23.663Z,10.39
2018-03-28T03:06:51.178Z,10.37
2018-03-28T03:09:18.691Z,10.38
2018-03-28T03:11:46.198Z,10.42
2018-03-28T03:14:13.787Z,10.43
2018-03-28T03:16:41.302Z,10.40
2018-03-28T03:19:08.812Z,10.34
2018-03-28T03:21:36.328Z,10.41
2018-03-28T03:24:03.819Z,10.36
2018-03-28T03:26:31.711Z,10.34
2018-03-28T03:28:59.411Z,10.35
2018-03-28T03:31:26.983Z,10.40
2018-03-28T03:33:54.468Z,10.42
2018-03-28T03:36:21.982Z,10.48
2018-03-28T03:38:49.474Z,10.41
2018-03-28T03:41:17.020Z,10.41
2018-03-28T03:43:44.514Z,10.42
2018-03-28T03:46:12.062Z,10.36
2018-03-28T03:48:39.551Z,10.33
2018-03-28T03:51:07.057Z,10.35
2018-03-28T03:53:34.543Z,10.35
2018-03-28T03:56:02.079Z,10.32
2018-03-28T03:58:29.569Z,10.31
2018-03-28T04:00:57.066Z,10.28
2018-03-28T04:03:24.632Z,10.19
2018-03-28T04:05:52.152Z,10.16
2018-03-28T04:08:19.776Z,10.13
2018-03-28T04:10:47.322Z,10.08
2018-03-28T04:13:14.831Z,10.09
2018-03-28T04:15:42.320Z,10.11
2018-03-28T04:18:09.844Z,10.04
2018-03-28T04:20:37.392Z,10.08
2018-03-28T04:23:04.895Z,10.00
2018-03-28T04:25:32.424Z,9.99
2018-03-28T04:27:59.971Z,10.02
2018-03-28T04:30:27.451Z,10.01
2018-03-28T04:32:54.958Z,9.97
2018-03-28T04:35:22.440Z,9.92
2018-03-28T04:37:50.097Z,9.89
2018-03-28T04:40:17.581Z,9.86
2018-03-28T04:42:45.126Z,9.90
2018-03-28T04:45:12.679Z,9.89
2018-03-28T04:47:40.184Z,9.90
2018-03-28T04:50:07.671Z,9.98
2018-03-28T04:52:35.184Z,10.01
2018-03-28T04:55:02.667Z,10.06
2018-03-28T04:57:30.187Z,10.06
2018-03-28T04:59:57.703Z,10.11
2018-03-28T05:02:25.241Z,10.12
2018-03-28T05:04:52.748Z,10.12
2018-03-28T05:07:20.243Z,10.17
2018-03-28T05:09:47.764Z,10.16
2018-03-28T05:12:15.255Z,10.17
2018-03-28T05:14:42.780Z,10.17
2018-03-28T05:17:10.280Z,10.14
2018-03-28T05:19:37.797Z,10.17
2018-03-28T05:22:05.282Z,10.18
2018-03-28T05:24:32.819Z,10.21
2018-03-28T05:27:00.306Z,10.20
2018-03-28T05:29:27.837Z,10.20
2018-03-28T05:31:55.323Z,10.24
2018-03-28T05:34:22.847Z,10.24
2018-03-28T05:36:50.338Z,10.27
2018-03-28T05:39:17.865Z,10.28
2018-03-28T05:41:45.349Z,10.30
2018-03-28T05:44:12.855Z,10.28
2018-03-28T05:46:40.384Z,10.28
2018-03-28T05:49:07.939Z,10.32
2018-03-28T05:51:35.459Z,10.30
2018-03-28T05:54:02.984Z,10.33
2018-03-28T05:56:30.505Z,10.34
2018-03-28T05:58:58.034Z,10.34
2018-03-28T06:01:25.602Z,10.32
2018-03-28T06:03:53.171Z,10.35
2018-03-28T06:06:20.654Z,10.37
2018-03-28T06:08:48.154Z,10.40
2018-03-28T06:11:15.664Z,10.41
2018-03-28T06:13:43.168Z,10.39
2018-03-28T06:16:10.704Z,10.41
2018-03-28T06:18:38.196Z,10.45
2018-03-28T06:21:05.776Z,10.40
2018-03-28T06:23:33.310Z,10.46
2018-03-28T06:26:00.994Z,10.44
2018-03-28T06:28:28.488Z,10.52
2018-03-28T06:30:56.004Z,10.56
2018-03-28T06:33:23.496Z,10.65
2018-03-28T06:35:51.280Z,10.68
2018-03-28T06:38:18.800Z,10.69
2018-03-28T06:40:46.363Z,10.76
2018-03-28T06:43:13.879Z,10.82
2018-03-28T06:45:41.400Z,10.82
2018-03-28T06:48:08.904Z,10.88
2018-03-28T06:50:36.431Z,10.95
2018-03-28T06:53:03.922Z,10.90
2018-03-28T06:55:31.452Z,10.99
2018-03-28T06:57:59.160Z,10.98
2018-03-28T07:00:26.680Z,11.09
2018-03-28T07:02:54.167Z,11.13
2018-03-28T07:05:21.697Z,11.15
2018-03-28T07:07:49.313Z,11.15
2018-03-28T07:10:16.844Z,11.23
2018-03-28T07:12:44.342Z,11.24
2018-03-28T07:15:11.877Z,11.30
2018-03-28T07:17:39.381Z,11.37
2018-03-28T07:20:06.904Z,11.46
2018-03-28T07:22:34.552Z,11.57
2018-03-28T07:25:02.044Z,11.56
2018-03-28T07:27:29.580Z,11.59
2018-03-28T07:29:57.098Z,11.78
2018-03-28T07:32:24.640Z,11.94
2018-03-28T07:34:52.136Z,12.09
2018-03-28T07:37:19.730Z,12.21
2018-03-28T07:39:47.215Z,12.42
2018-03-28T07:42:14.756Z,12.47
2018-03-28T07:44:42.243Z,12.34
2018-03-28T07:47:09.751Z,12.37
2018-03-28T07:49:37.321Z,12.47
2018-03-28T07:52:04.828Z,12.69
2018-03-28T07:54:32.312Z,12.58
2018-03-28T07:57:00.136Z,12.46
2018-03-28T07:59:27.691Z,12.04
2018-03-28T08:01:55.244Z,12.16
2018-03-28T08:04:22.799Z,11.89
2018-03-28T08:06:50.303Z,11.80
2018-03-28T08:09:17.917Z,11.76
2018-03-28T08:11:45.468Z,11.78
2018-03-28T08:14:13.020Z,11.59
2018-03-28T08:16:40.599Z,11.49
2018-03-28T08:19:08.105Z,11.43
2018-03-28T08:21:35.611Z,11.44
2018-03-28T08:24:03.135Z,11.52
2018-03-28T08:26:30.631Z,11.69
2018-03-28T08:28:58.153Z,11.81
2018-03-28T08:31:25.752Z,11.88
2018-03-28T08:33:53.265Z,12.00
2018-03-28T08:36:20.796Z,12.08
2018-03-28T08:38:48.312Z,12.14
2018-03-28T08:41:15.804Z,11.99
2018-03-28T08:43:43.322Z,11.99
2018-03-28T08:46:10.811Z,12.10
2018-03-28T08:48:38.315Z,12.45
2018-03-28T08:51:05.811Z,12.84
2018-03-28T08:53:33.343Z,12.88
2018-03-28T08:56:00.864Z,13.21
2018-03-28T08:58:28.447Z,13.29
2018-03-28T09:00:55.938Z,13.52
2018-03-28T09:03:23.471Z,13.43
2018-03-28T09:05:50.961Z,13.47
2018-03-28T09:08:18.484Z,13.64
2018-03-28T09:10:45.976Z,13.81
2018-03-28T09:13:13.531Z,13.82
2018-03-28T09:15:41.092Z,14.09
2018-03-28T09:18:08.720Z,14.01
2018-03-28T09:20:36.363Z,14.55
2018-03-28T09:23:03.879Z,14.85
2018-03-28T09:25:31.388Z,14.75
2018-03-28T09:27:58.912Z,14.99
2018-03-28T09:30:26.420Z,15.14
2018-03-28T09:32:53.917Z,15.24
2018-03-28T09:35:21.444Z,15.60
2018-03-28T09:37:50.051Z,15.68
2018-03-28T09:40:18.532Z,15.45
2018-03-28T09:42:46.015Z,15.05
2018-03-28T09:45:13.541Z,15.00
2018-03-28T09:47:41.047Z,14.83
2018-03-28T09:50:09.487Z,14.49
2018-03-28T09:52:36.972Z,14.51
2018-03-28T09:55:04.531Z,14.23
2018-03-28T09:57:32.040Z,14.12
2018-03-28T09:59:59.563Z,14.09
2018-03-28T10:02:30.952Z,14.11
2018-03-28T10:05:00.308Z,14.29
2018-03-28T10:07:27.816Z,14.31
2018-03-28T10:09:55.328Z,14.30
2018-03-28T10:12:22.833Z,14.21
2018-03-28T10:14:50.359Z,14.24
2018-03-28T10:17:17.867Z,14.40
2018-03-28T10:19:45.395Z,14.59
2018-03-28T10:22:12.884Z,15.27
2018-03-28T10:24:40.452Z,15.63
2018-03-28T10:27:07.938Z,16.14
2018-03-28T10:29:35.486Z,16.41
2018-03-28T10:32:02.980Z,16.15
2018-03-28T10:34:30.505Z,16.59
2018-03-28T10:36:58.027Z,16.02
2018-03-28T10:39:25.595Z,15.74
2018-03-28T10:41:53.098Z,15.40
2018-03-28T10:44:20.612Z,15.43
2018-03-28T10:46:48.219Z,15.42
2018-03-28T10:49:15.746Z,15.45
2018-03-28T10:51:43.265Z,15.29
2018-03-28T10:54:10.775Z,15.23
2018-03-28T10:56:38.288Z,15.05
2018-03-28T10:59:05.796Z,14.96
2018-03-28T11:01:33.388Z,15.08
2018-03-28T11:04:00.944Z,15.19
2018-03-28T11:06:28.463Z,15.21
2018-03-28T11:08:55.973Z,15.28
2018-03-28T11:11:23.483Z,15.34
2018-03-28T11:13:50.971Z,15.46
2018-03-28T11:16:18.496Z,15.61
2018-03-28T11:18:46.006Z,15.80
2018-03-28T11:21:13.514Z,15.90
2018-03-28T11:23:41.068Z,16.09
2018-03-28T11:26:08.639Z,16.17
2018-03-28T11:28:36.139Z,16.20
2018-03-28T11:31:03.670Z,16.06
2018-03-28T11:33:31.162Z,16.03
2018-03-28T11:35:58.683Z,15.90
2018-03-28T11:38:26.259Z,15.95
2018-03-28T11:40:53.767Z,15.94
2018-03-28T11:43:21.273Z,16.14
2018-03-28T11:45:48.787Z,16.04
2018-03-28T11:48:16.280Z,15.75
2018-03-28T11:50:43.763Z,15.56
2018-03-28T11:53:11.284Z,15.59
2018-03-28T11:55:38.858Z,15.36
2018-03-28T11:58:06.577Z,15.52
2018-03-28T12:00:34.068Z,15.53
2018-03-28T12:03:01.663Z,15.33
2018-03-28T12:05:29.151Z,15.28
2018-03-28T12:07:56.682Z,15.19
2018-03-28T12:10:24.202Z,15.35
2018-03-28T12:12:51.760Z,15.37
2018-03-28T12:15:19.326Z,15.40
2018-03-28T12:17:46.835Z,15.15
2018-03-28T12:20:14.327Z,14.74
2018-03-28T12:22:41.843Z,14.50
2018-03-28T12:25:09.354Z,14.29
2018-03-28T12:27:36.919Z,14.22
2018-03-28T12:30:04.453Z,14.12
2018-03-28T12:32:31.971Z,14.03
2018-03-28T12:34:59.505Z,13.98
2018-03-28T12:37:27.072Z,13.85
2018-03-28T12:39:54.557Z,13.59
2018-03-28T12:42:22.174Z,13.51
2018-03-28T12:44:49.769Z,13.57
2018-03-28T12:47:17.406Z,13.64
2018-03-28T12:49:44.920Z,13.63
2018-03-28T12:52:12.457Z,13.69
2018-03-28T12:54:40.074Z,13.66
2018-03-28T12:57:07.556Z,13.80
2018-03-28T12:59:35.064Z,13.88
2018-03-28T13:02:02.556Z,14.02
2018-03-28T13:04:30.063Z,14.25
2018-03-28T13:06:57.543Z,14.30
2018-03-28T13:09:25.089Z,14.22
2018-03-28T13:11:52.580Z,14.16
2018-03-28T13:14:20.098Z,14.23
2018-03-28T13:16:47.614Z,14.06
2018-03-28T13:19:15.182Z,13.98
2018-03-28T13:21:42.667Z,13.94
2018-03-28T13:24:10.176Z,13.78
2018-03-28T13:26:37.663Z,13.67
2018-03-28T13:29:05.168Z,13.68
2018-03-28T13:31:33.302Z,13.69
2018-03-28T13:34:00.834Z,13.68
2018-03-28T13:36:28.350Z,13.56
2018-03-28T13:38:55.859Z,13.54
2018-03-28T13:41:23.345Z,13.51
2018-03-28T13:43:50.856Z,13.52
2018-03-28T13:46:18.353Z,13.45
2018-03-28T13:48:45.875Z,13.44
2018-03-28T13:51:13.363Z,13.28
2018-03-28T13:53:40.891Z,13.06
2018-03-28T13:56:08.399Z,12.98
2018-03-28T13:58:35.916Z,12.88
2018-03-28T14:01:03.425Z,12.90
2018-03-28T14:03:30.915Z,12.95
2018-03-28T14:05:58.443Z,12.96
2018-03-28T14:08:25.936Z,12.91
2018-03-28T14:10:53.471Z,12.86
2018-03-28T14:13:20.983Z,12.84
2018-03-28T14:15:48.496Z,12.87
2018-03-28T14:18:16.003Z,12.93
2018-03-28T14:20:43.549Z,12.96
2018-03-28T14:23:11.040Z,12.89
2018-03-28T14:25:38.568Z,12.85
2018-03-28T14:28:06.224Z,12.78
2018-03-28T14:30:33.779Z,12.77
2018-03-28T14:33:01.257Z,12.81
2018-03-28T14:35:28.807Z,12.90
2018-03-28T14:37:56.321Z,13.00
2018-03-28T14:40:23.843Z,13.04
2018-03-28T14:42:54.584Z,12.95
2018-03-28T14:45:18.906Z,12.74
2018-03-28T14:47:46.400Z,12.52
2018-03-28T14:50:13.907Z,12.48
2018-03-28T14:52:41.391Z,12.54
2018-03-28T14:55:08.927Z,12.49
2018-03-28T14:57:36.476Z,12.51
2018-03-28T15:00:04.020Z,12.45
2018-03-28T15:02:31.516Z,12.30
2018-03-28T15:04:58.999Z,12.29
2018-03-28T15:07:26.539Z,12.24
2018-03-28T15:09:54.037Z,12.22
2018-03-28T15:12:21.577Z,12.21
2018-03-28T15:14:49.112Z,12.21
2018-03-28T15:17:16.739Z,12.24
2018-03-28T15:19:44.488Z,12.32
2018-03-28T15:22:12.091Z,12.40
2018-03-28T15:24:39.645Z,12.51
2018-03-28T15:27:07.261Z,12.60
2018-03-28T15:29:34.865Z,12.63
2018-03-28T15:32:02.677Z,12.62
2018-03-28T15:34:30.446Z,12.55
2018-03-28T15:36:58.218Z,12.55
2018-03-28T15:39:26.020Z,12.51
2018-03-28T15:41:53.739Z,12.47
2018-03-28T15:44:21.607Z,12.44
2018-03-28T15:46:49.475Z,12.35
2018-03-28T15:49:17.144Z,12.34
2018-03-28T15:51:44.887Z,12.31
2018-03-28T15:54:12.613Z,12.25
2018-03-28T15:56:40.428Z,12.22
2018-03-28T15:59:08.122Z,12.25
2018-03-28T16:01:36.468Z,12.23
2018-03-28T16:04:04.138Z,12.17
2018-03-28T16:06:31.797Z,12.17
2018-03-28T16:08:59.434Z,12.10
2018-03-28T16:11:27.097Z,12.09
2018-03-28T16:13:54.727Z,12.11
2018-03-28T16:16:22.407Z,12.10
2018-03-28T16:18:50.105Z,12.22
2018-03-28T16:21:17.866Z,12.29
2018-03-28T16:23:45.617Z,12.26
2018-03-28T16:26:13.293Z,12.29
2018-03-28T16:28:41.058Z,12.27
2018-03-28T16:31:08.826Z,12.37
2018-03-28T16:33:36.794Z,12.28
2018-03-28T16:36:04.456Z,12.25
2018-03-28T16:38:32.115Z,12.48
2018-03-28T16:40:59.900Z,12.32
2018-03-28T16:43:27.801Z,12.29
2018-03-28T16:45:55.514Z,12.26
2018-03-28T16:48:23.145Z,12.30
2018-03-28T16:50:50.735Z,12.30
2018-03-28T16:53:18.497Z,12.29
2018-03-28T16:55:46.084Z,12.31
2018-03-28T16:58:13.930Z,12.24
2018-03-28T17:00:41.792Z,12.23
2018-03-28T17:03:09.476Z,12.22
2018-03-28T17:05:37.119Z,12.19
2018-03-28T17:08:04.836Z,12.07
2018-03-28T17:10:32.549Z,12.11
2018-03-28T17:13:00.411Z,12.12
2018-03-28T17:15:28.067Z,12.18
2018-03-28T17:17:55.722Z,12.16
2018-03-28T17:20:23.513Z,12.07
2018-03-28T17:22:51.210Z,12.03
2018-03-28T17:25:18.719Z,12.11
2018-03-28T17:27:46.330Z,12.09
2018-03-28T17:30:13.942Z,12.14
2018-03-28T17:32:41.624Z,12.10
2018-03-28T17:35:09.213Z,12.01
2018-03-28T17:37:36.797Z,11.98
2018-03-28T17:40:04.490Z,11.91
2018-03-28T17:42:32.148Z,11.85
2018-03-28T17:44:59.823Z,11.92
2018-03-28T17:47:27.448Z,11.86
2018-03-28T17:49:55.218Z,11.79
2018-03-28T17:52:22.897Z,11.68
2018-03-28T17:54:50.566Z,11.60
2018-03-28T17:57:18.235Z,11.56
2018-03-28T17:59:46.801Z,11.52
2018-03-28T18:02:14.571Z,11.47
2018-03-28T18:04:42.233Z,11.47
2018-03-28T18:07:09.997Z,11.26
2018-03-28T18:09:37.866Z,11.01
2018-03-28T18:12:05.533Z,10.64
2018-03-28T18:14:33.291Z,10.47
2018-03-28T18:17:00.953Z,10.30
2018-03-28T18:19:28.595Z,10.24
2018-03-28T18:21:56.481Z,10.19
2018-03-28T18:24:24.143Z,10.15
2018-03-28T18:26:51.709Z,10.14
2018-03-28T18:29:19.574Z,10.09
2018-03-28T18:31:47.334Z,10.07
2018-03-28T18:34:15.057Z,10.08
2018-03-28T18:36:42.765Z,10.06
2018-03-28T18:39:10.422Z,10.03
2018-03-28T18:41:38.084Z,10.03
2018-03-28T18:44:05.746Z,10.03
2018-03-28T18:46:33.408Z,10.01
2018-03-28T18:49:01.074Z,10.00
2018-03-28T18:51:28.803Z,10.07
2018-03-28T18:53:57.316Z,10.16
2018-03-28T18:56:24.905Z,10.17
2018-03-28T18:58:52.648Z,10.16
2018-03-28T19:01:20.250Z,10.14
2018-03-28T19:03:47.998Z,10.13
2018-03-28T19:06:15.858Z,10.08
2018-03-28T19:08:43.521Z,10.09
2018-03-28T19:11:11.208Z,10.03
2018-03-28T19:13:38.997Z,10.03
2018-03-28T19:16:06.515Z,9.94
2018-03-28T19:18:34.193Z,9.91
2018-03-28T19:21:02.060Z,9.99
2018-03-28T19:23:29.556Z,10.02
2018-03-28T19:25:57.162Z,9.99
2018-03-28T19:28:24.684Z,9.95
2018-03-28T19:30:52.227Z,9.91
2018-03-28T19:33:19.835Z,9.91
2018-03-28T19:35:47.371Z,9.90
2018-03-28T19:38:14.860Z,9.86
2018-03-28T19:40:42.468Z,9.83
2018-03-28T19:43:09.984Z,9.80
2018-03-28T19:45:37.516Z,9.80
2018-03-28T19:48:05.048Z,9.81
2018-03-28T19:50:32.532Z,9.78
2018-03-28T19:53:00.260Z,9.74
2018-03-28T19:55:27.720Z,9.72
2018-03-28T19:57:55.263Z,9.75
2018-03-28T20:00:22.777Z,9.68
2018-03-28T20:02:50.303Z,9.67
2018-03-28T20:05:17.795Z,9.76
2018-03-28T20:07:45.332Z,9.73
2018-03-28T20:10:12.858Z,9.72
2018-03-28T20:12:40.531Z,9.71
2018-03-28T20:15:11.455Z,9.67
2018-03-28T20:17:38.989Z,9.64
2018-03-28T20:20:06.566Z,9.68
2018-03-28T20:22:34.085Z,9.70
2018-03-28T20:25:01.629Z,9.78
2018-03-28T20:27:29.156Z,9.88
2018-03-28T20:29:56.664Z,9.86
2018-03-28T20:32:24.268Z,9.84
2018-03-28T20:34:51.758Z,9.87
2018-03-28T20:37:19.275Z,9.84
2018-03-28T20:39:46.771Z,9.82
2018-03-28T20:42:14.291Z,9.83
2018-03-28T20:44:41.781Z,9.85
2018-03-28T20:47:09.430Z,9.93
2018-03-28T20:49:36.941Z,9.99
2018-03-28T20:52:04.446Z,9.92
2018-03-28T20:54:31.967Z,10.01
2018-03-28T20:57:00.552Z,10.05
2018-03-28T20:59:28.067Z,10.06
2018-03-28T21:01:55.597Z,10.02
2018-03-28T21:04:23.176Z,10.04
2018-03-28T21:06:50.729Z,10.03
2018-03-28T21:09:18.265Z,10.03
2018-03-28T21:11:45.792Z,9.99
2018-03-28T21:14:13.402Z,9.94
2018-03-28T21:16:40.883Z,9.89
2018-03-28T21:19:08.393Z,9.92
2018-03-28T21:21:35.883Z,9.90
2018-03-28T21:24:03.462Z,9.83
2018-03-28T21:26:31.094Z,9.79
2018-03-28T21:28:58.630Z,9.65
2018-03-28T21:31:26.112Z,9.57
2018-03-28T21:33:53.631Z,9.48
2018-03-28T21:36:21.123Z,9.42
2018-03-28T21:38:48.696Z,9.36
2018-03-28T21:41:16.212Z,9.31
2018-03-28T21:43:43.748Z,9.31
2018-03-28T21:46:11.228Z,9.23
2018-03-28T21:48:38.813Z,9.13
2018-03-28T21:51:06.297Z,9.06
2018-03-28T21:53:33.880Z,9.04
2018-03-28T21:56:01.402Z,8.96
2018-03-28T21:58:29.019Z,8.91
2018-03-28T22:00:56.530Z,8.89
2018-03-28T22:03:24.035Z,8.90
2018-03-28T22:05:51.531Z,8.86
2018-03-28T22:08:19.041Z,8.77
2018-03-28T22:10:46.552Z,8.77
2018-03-28T22:13:14.031Z,8.77
2018-03-28T22:15:41.551Z,8.77
2018-03-28T22:18:09.046Z,8.76
2018-03-28T22:20:36.576Z,8.77
2018-03-28T22:23:04.068Z,8.76
2018-03-28T22:25:31.590Z,8.75
2018-03-28T22:27:59.096Z,8.71
2018-03-28T22:30:26.608Z,8.68
2018-03-28T22:32:54.147Z,8.65
2018-03-28T22:35:21.653Z,8.63
2018-03-28T22:37:49.510Z,8.61
2018-03-28T22:40:17.028Z,8.59
2018-03-28T22:42:44.524Z,8.55
2018-03-28T22:45:12.023Z,8.53
2018-03-28T22:47:39.507Z,8.52
2018-03-28T22:50:07.027Z,8.54
2018-03-28T22:52:34.503Z,8.55
2018-03-28T22:55:02.021Z,8.54
2018-03-28T22:57:29.523Z,8.54
2018-03-28T22:59:57.006Z,8.52
2018-03-28T23:02:24.515Z,8.48
2018-03-28T23:04:52.008Z,8.52
2018-03-28T23:07:19.615Z,8.46
2018-03-28T23:09:47.108Z,8.45
2018-03-28T23:12:14.619Z,8.38
2018-03-28T23:14:42.176Z,8.33
2018-03-28T23:17:09.731Z,8.22
2018-03-28T23:19:37.211Z,8.13
2018-03-28T23:22:04.723Z,8.08
2018-03-28T23:24:32.205Z,8.01
2018-03-28T23:26:59.813Z,7.88
2018-03-28T23:29:27.312Z,7.83
2018-03-28T23:31:54.823Z,7.74
2018-03-28T23:34:22.308Z,7.74
2018-03-28T23:36:49.820Z,7.72
2018-03-28T23:39:17.307Z,7.63
2018-03-28T23:41:44.809Z,7.65
2018-03-28T23:44:12.300Z,7.64
2018-03-28T23:46:39.817Z,7.65
2018-03-28T23:49:07.340Z,7.57
2018-03-28T23:51:34.852Z,7.55
2018-03-28T23:54:02.385Z,7.50
2018-03-28T23:56:29.876Z,7.48
2018-03-28T23:58:57.378Z,7.49
